Aérodrome :
LOGIN :

S'inscrire | Disclaimer

   EN    FR    IT 

 










Légende :    VFR   VFR Marginal   IFR   IFR Intensif   IFR Très Intensif
Visi : 
Plafond : 
>= 8 km
>= 3000ft
5 à 8 km
1000 à 3000 ft
1500m à 5 km
500 à 1000 ft
800 à 1500m
200 à 500 ft
< 800m
< 200 ft
Symboles :   Orages  Brouillard  Fortes neiges  Fortes précipitations  Vent > 20 kt
SIGMETs :   Divers  Orages  Givrage  Turbulence  Onde Orograph.  Cendres Volcan.






- Altitude de l'aérodrome : 1276 ft
- Code IATA : STR


EDDS - Stuttgart

DERNIER METAR :
  • 231250Z AUTO 35008KT 290V030 CAVOK 09/M02 Q1014 NOSIG

METARs EXPIRÉS :
  • 231220Z AUTO 01008KT 300V070 CAVOK 09/M03 Q1014 NOSIG
  • 231150Z AUTO 04007KT 340V080 CAVOK 08/M03 Q1015 NOSIG
  • 231120Z AUTO 02007KT 310V090 9999 BKN046 08/M03 Q1015 NOSIG
  • 231050Z AUTO 35008KT 290V040 9999 BKN043 08/M01 Q1015 NOSIG
  • 231020Z AUTO 36008KT 320V080 9999 BKN038 BKN044 07/M01 Q1015 NOSIG
  • 230950Z AUTO 34008KT 290V060 9999 FEW029 BKN036 06/M02 Q1016 NOSIG
  • 230920Z AUTO 35005KT 290V090 9999 FEW028 06/M01 Q1016 NOSIG
  • 230850Z AUTO 36004KT 280V070 CAVOK 05/M01 Q1016 NOSIG
  • 230820Z AUTO 02006KT 320V090 CAVOK 05/M02 Q1016 NOSIG
  • 230750Z AUTO 03006KT 320V070 CAVOK 04/M02 Q1016 NOSIG

TAF TAF EDDS
Valide du 23 à 12h jusqu'au 24 à 12h UTC


231100Z 2312/2412 35007KT CAVOK
BECMG 2319/2322 29004KT
BECMG 2409/2411 26010KT
TEMPO 2410/2412 4500 SHRA BKN025CB



MET'MAP, la Météo Aéronautique d'un coup d'oeil ! - Copyright ORBIFLY Décembre 2007 - Disclaimer

ORBIFLY MET'MAP TEAM :

Programmation & Développement : Alexandra Zaïnal
Sur une idée originale de : Baudouin d'Aumeries
Soutien technique & logistique : Manuel Goepfert
Assistance : Marc-Olivier Méhu




SOURCES & CREDITS :

   NOAA